Pilotina Y412 — Y412 — position and weather

sailwx.info

Track history (hours):
 
Tides and Currents Weather Stations Pressure Air Temp Water Temp Dewpoint Dewpoint Depression Visibility Wind Speed Wind Dir Waves Ship Positions

Pilotina Y412

Last reported at 2017-Sep-19 12:02 UTC. Time now 2017-Sep-22 20:51 UTC.
Position N 40°29' E 017°15'.

; draft 1 m.

MMSI: 245679000.

Date/timePositionNaut miles runAvg speedWind from/ knotsBaromVisibWave heightAir tempDewpointWater temp
2017-Sep-19 12:02N 40°29' E 017°15'0 0.2
2017-Sep-19 12:01N 40°29' E 017°15'0 0.0
2017-Sep-19 10:47N 40°29' E 017°15'0 0.0
2017-Sep-19 10:30N 40°29' E 017°15'1 1.6
2017-Sep-19 10:00N 40°29' E 017°14'2 4.1
2017-Sep-19 09:30N 40°27' E 017°15'0 0.0
2017-Sep-19 09:00N 40°27' E 017°15'0 0.0
2017-Sep-19 08:30N 40°27' E 017°15'0 0.0
2017-Sep-19 08:00N 40°27' E 017°15'0 0.0
2017-Sep-19 07:30N 40°27' E 017°15'2 4.0
2017-Sep-19 06:59N 40°29' E 017°14'1 1.5
2017-Sep-19 06:30N 40°29' E 017°15'  
2017-Sep-15 07:57N 40°29' E 017°15'0 0.0
2017-Sep-15 07:30N 40°29' E 017°15'0 0.0
2017-Sep-15 07:00N 40°29' E 017°15'0 0.0
2017-Sep-15 06:30N 40°29' E 017°15'0 0.0
2017-Sep-15 06:00N 40°29' E 017°15'0 0.0
2017-Sep-14 14:32N 40°29' E 017°15'0 0.3
2017-Sep-14 14:30N 40°29' E 017°15'0 0.3
2017-Sep-14 14:00N 40°29' E 017°15'612.8
2017-Sep-14 13:30N 40°23' E 017°11'714.7
2017-Sep-14 13:00N 40°16' E 017°10'3 5.8
2017-Sep-14 12:31N 40°13' E 017°10'4 7.0
2017-Sep-14 12:00N 40°17' E 017°09'713.9
2017-Sep-14 11:30N 40°10' E 017°07'612.3
2017-Sep-14 11:00N 40°16' E 017°05'2 3.3
2017-Sep-14 10:30N 40°17' E 017°04'3 5.6
2017-Sep-14 10:00N 40°15' E 017°07'4 8.5
2017-Sep-14 09:30N 40°11' E 017°09'612.6
2017-Sep-14 09:00N 40°17' E 017°11'5 9.8
2017-Sep-14 08:30N 40°12' E 017°10'713.7
2017-Sep-14 08:00N 40°19' E 017°10'5 9.5
2017-Sep-14 07:30N 40°24' E 017°10'3 5.4
2017-Sep-14 07:01N 40°26' E 017°12'3 6.0
2017-Sep-14 06:30N 40°29' E 017°14'1 1.5
2017-Sep-14 06:00N 40°29' E 017°15'0 0.0
2017-Sep-13 12:18N 40°29' E 017°15'0 0.0
2017-Sep-13 11:13N 40°29' E 017°15'0 0.0
2017-Sep-13 11:00N 40°29' E 017°15'2 4.0
2017-Sep-13 10:30N 40°27' E 017°15'0 0.0
2017-Sep-13 10:00N 40°27' E 017°15'0 0.0
2017-Sep-13 09:30N 40°27' E 017°15'0 0.0
2017-Sep-13 09:00N 40°27' E 017°15'0 0.0
2017-Sep-13 08:30N 40°27' E 017°15'0 0.0
2017-Sep-13 08:00N 40°27' E 017°15'2 4.2
2017-Sep-13 07:30N 40°29' E 017°15'1 1.2
2017-Sep-13 07:00N 40°28' E 017°16'1 1.1
2017-Sep-13 06:30N 40°29' E 017°15'0 0.0
2017-Sep-11 08:05N 40°29' E 017°15'0 0.0
2017-Sep-11 08:00N 40°29' E 017°15'0 0.0
2017-Sep-11 07:30N 40°29' E 017°15'0 0.0
2017-Sep-11 07:00N 40°29' E 017°15'0 0.0
2017-Sep-11 06:30N 40°29' E 017°15'0 0.0
2017-Sep-11 06:00N 40°29' E 017°15'  
Track history (hours):
 
Tides and Currents Weather Stations Pressure Air Temp Water Temp Dewpoint Dewpoint Depression Visibility Wind Speed Wind Dir Waves Ship Positions

Pilotina Y412

Last reported at 2017-Sep-19 12:02 UTC. Time now 2017-Sep-22 20:51 UTC.
Position N 40°29' E 017°15'.

; draft 1 m.

MMSI: 245679000.

Date/timePositionNaut miles runAvg speedWind from/ knotsBaromVisibWave heightAir tempDewpointWater temp
2017-Sep-19 12:02N 40°29' E 017°15'0 0.2
2017-Sep-19 12:01N 40°29' E 017°15'0 0.0
2017-Sep-19 10:47N 40°29' E 017°15'0 0.0
2017-Sep-19 10:30N 40°29' E 017°15'1 1.6
2017-Sep-19 10:00N 40°29' E 017°14'2 4.1
2017-Sep-19 09:30N 40°27' E 017°15'0 0.0
2017-Sep-19 09:00N 40°27' E 017°15'0 0.0
2017-Sep-19 08:30N 40°27' E 017°15'0 0.0
2017-Sep-19 08:00N 40°27' E 017°15'0 0.0
2017-Sep-19 07:30N 40°27' E 017°15'2 4.0
2017-Sep-19 06:59N 40°29' E 017°14'1 1.5
2017-Sep-19 06:30N 40°29' E 017°15'  
2017-Sep-15 07:57N 40°29' E 017°15'0 0.0
2017-Sep-15 07:30N 40°29' E 017°15'0 0.0
2017-Sep-15 07:00N 40°29' E 017°15'0 0.0
2017-Sep-15 06:30N 40°29' E 017°15'0 0.0
2017-Sep-15 06:00N 40°29' E 017°15'0 0.0
2017-Sep-14 14:32N 40°29' E 017°15'0 0.3
2017-Sep-14 14:30N 40°29' E 017°15'0 0.3
2017-Sep-14 14:00N 40°29' E 017°15'612.8
2017-Sep-14 13:30N 40°23' E 017°11'714.7
2017-Sep-14 13:00N 40°16' E 017°10'3 5.8
2017-Sep-14 12:31N 40°13' E 017°10'4 7.0
2017-Sep-14 12:00N 40°17' E 017°09'713.9
2017-Sep-14 11:30N 40°10' E 017°07'612.3
2017-Sep-14 11:00N 40°16' E 017°05'2 3.3
2017-Sep-14 10:30N 40°17' E 017°04'3 5.6
2017-Sep-14 10:00N 40°15' E 017°07'4 8.5
2017-Sep-14 09:30N 40°11' E 017°09'612.6
2017-Sep-14 09:00N 40°17' E 017°11'5 9.8
2017-Sep-14 08:30N 40°12' E 017°10'713.7
2017-Sep-14 08:00N 40°19' E 017°10'5 9.5
2017-Sep-14 07:30N 40°24' E 017°10'3 5.4
2017-Sep-14 07:01N 40°26' E 017°12'3 6.0
2017-Sep-14 06:30N 40°29' E 017°14'1 1.5
2017-Sep-14 06:00N 40°29' E 017°15'0 0.0
2017-Sep-13 12:18N 40°29' E 017°15'0 0.0
2017-Sep-13 11:13N 40°29' E 017°15'0 0.0
2017-Sep-13 11:00N 40°29' E 017°15'2 4.0
2017-Sep-13 10:30N 40°27' E 017°15'0 0.0
2017-Sep-13 10:00N 40°27' E 017°15'0 0.0
2017-Sep-13 09:30N 40°27' E 017°15'0 0.0
2017-Sep-13 09:00N 40°27' E 017°15'0 0.0
2017-Sep-13 08:30N 40°27' E 017°15'0 0.0
2017-Sep-13 08:00N 40°27' E 017°15'2 4.2
2017-Sep-13 07:30N 40°29' E 017°15'1 1.2
2017-Sep-13 07:00N 40°28' E 017°16'1 1.1
2017-Sep-13 06:30N 40°29' E 017°15'0 0.0
2017-Sep-11 08:05N 40°29' E 017°15'0 0.0
2017-Sep-11 08:00N 40°29' E 017°15'0 0.0
2017-Sep-11 07:30N 40°29' E 017°15'0 0.0
2017-Sep-11 07:00N 40°29' E 017°15'0 0.0
2017-Sep-11 06:30N 40°29' E 017°15'0 0.0
2017-Sep-11 06:00N 40°29' E 017°15'  

Dump ship's entire track history